createdAt,value
2019-02-21T00:01:01.534Z,81.40
2019-02-21T00:03:30.410Z,81.50
2019-02-21T00:05:58.810Z,81.50
2019-02-21T00:08:27.578Z,81.40
2019-02-21T00:10:56.362Z,81.40
2019-02-21T00:13:24.810Z,81.40
2019-02-21T00:15:53.530Z,81.50
2019-02-21T00:18:21.947Z,81.60
2019-02-21T00:20:50.415Z,81.60
2019-02-21T00:23:19.145Z,81.60
2019-02-21T00:25:47.579Z,81.90
2019-02-21T00:28:15.984Z,82.00
2019-02-21T00:30:44.418Z,82.00
2019-02-21T00:33:12.832Z,82.40
2019-02-21T00:35:41.591Z,82.40
2019-02-21T00:38:10.401Z,82.70
2019-02-21T00:40:38.898Z,82.90
2019-02-21T00:43:07.374Z,83.30
2019-02-21T00:45:37.404Z,83.30
2019-02-21T00:48:05.802Z,83.50
2019-02-21T00:50:34.505Z,83.70
2019-02-21T00:53:03.198Z,83.90
2019-02-21T00:55:31.968Z,83.80
2019-02-21T00:58:00.374Z,83.90
2019-02-21T01:00:28.948Z,84.10
2019-02-21T01:02:57.374Z,84.30
2019-02-21T01:05:25.804Z,84.30
2019-02-21T01:07:54.589Z,84.50
2019-02-21T01:10:23.019Z,84.60
2019-02-21T01:12:51.427Z,84.80
2019-02-21T01:15:19.863Z,84.80
2019-02-21T01:17:48.618Z,84.90
2019-02-21T01:20:17.403Z,85.00
2019-02-21T01:22:45.823Z,85.10
2019-02-21T01:25:14.251Z,85.20
2019-02-21T01:27:42.657Z,85.50
2019-02-21T01:30:11.341Z,85.60
2019-02-21T01:32:39.750Z,85.80
2019-02-21T01:35:08.597Z,86.10
2019-02-21T01:37:37.266Z,86.30
2019-02-21T01:40:07.958Z,86.30
2019-02-21T01:42:36.730Z,86.50
2019-02-21T01:45:06.541Z,86.30
2019-02-21T01:47:35.849Z,86.40
2019-02-21T01:50:06.261Z,86.60
2019-02-21T01:52:34.763Z,86.70
2019-02-21T01:55:03.903Z,86.90
2019-02-21T01:57:32.615Z,87.00
2019-02-21T02:00:01.047Z,87.50
2019-02-21T02:02:29.762Z,87.90
2019-02-21T02:04:58.201Z,88.30
2019-02-21T02:07:26.878Z,88.80
2019-02-21T02:09:55.361Z,89.10
2019-02-21T02:12:24.163Z,89.30
2019-02-21T02:14:52.586Z,89.60
2019-02-21T02:17:21.049Z,89.50
2019-02-21T02:19:49.493Z,89.70
2019-02-21T02:22:18.159Z,90.00
2019-02-21T02:24:46.610Z,89.90
2019-02-21T02:27:15.002Z,90.00
2019-02-21T02:29:43.435Z,90.40
2019-02-21T02:32:11.915Z,90.30
2019-02-21T02:34:40.355Z,90.50
2019-02-21T02:37:08.834Z,90.70
2019-02-21T02:39:37.274Z,90.80
2019-02-21T02:42:06.054Z,90.80
2019-02-21T02:44:34.509Z,90.90
2019-02-21T02:47:02.917Z,90.90
2019-02-21T02:49:31.372Z,91.10
2019-02-21T02:51:59.921Z,91.10
2019-02-21T02:54:28.771Z,91.20
2019-02-21T02:56:57.291Z,91.10
2019-02-21T02:59:25.791Z,91.20
2019-02-21T03:01:54.439Z,91.20
2019-02-21T03:04:23.361Z,91.40
2019-02-21T03:06:51.829Z,91.50
2019-02-21T03:09:20.704Z,91.50
2019-02-21T03:11:51.726Z,91.60
2019-02-21T03:14:19.293Z,91.50
2019-02-21T03:16:48.259Z,91.70
2019-02-21T03:19:16.952Z,91.70
2019-02-21T03:21:45.382Z,91.70
2019-02-21T03:24:13.906Z,91.70
2019-02-21T03:26:42.709Z,91.80
2019-02-21T03:29:11.126Z,91.80
2019-02-21T03:31:53.376Z,91.90
2019-02-21T03:34:09.703Z,91.90
2019-02-21T03:36:38.137Z,92.00
2019-02-21T03:39:08.192Z,92.00
2019-02-21T03:41:36.697Z,91.90
2019-02-21T03:44:05.110Z,92.10
2019-02-21T03:46:33.964Z,92.10
2019-02-21T03:49:02.721Z,91.90
2019-02-21T03:51:31.175Z,92.30
2019-02-21T03:53:59.664Z,92.50
2019-02-21T03:56:28.101Z,92.60
2019-02-21T03:58:56.835Z,92.60
2019-02-21T04:01:26.323Z,92.70
2019-02-21T04:03:55.059Z,92.70
2019-02-21T04:06:23.583Z,92.70
2019-02-21T04:08:52.226Z,92.70
2019-02-21T04:11:20.981Z,92.80
2019-02-21T04:13:49.997Z,92.80
2019-02-21T04:16:18.402Z,92.80
2019-02-21T04:18:46.806Z,92.70
2019-02-21T04:21:15.453Z,92.60
2019-02-21T04:23:43.926Z,92.80
2019-02-21T04:26:12.515Z,92.60
2019-02-21T04:28:40.928Z,92.60
2019-02-21T04:31:09.848Z,92.60
2019-02-21T04:33:38.717Z,92.60
2019-02-21T04:36:07.517Z,92.60
2019-02-21T04:38:36.142Z,92.50
2019-02-21T04:41:04.618Z,92.50
2019-02-21T04:43:33.026Z,92.50
2019-02-21T04:46:01.975Z,92.70
2019-02-21T04:48:30.653Z,92.70
2019-02-21T04:50:59.065Z,92.60
2019-02-21T04:53:28.025Z,92.70
2019-02-21T04:55:58.234Z,92.70
2019-02-21T04:58:26.689Z,92.80
2019-02-21T05:00:55.627Z,92.90
2019-02-21T05:03:24.042Z,93.00
2019-02-21T05:05:52.730Z,93.10
2019-02-21T05:08:21.470Z,93.20
2019-02-21T05:10:50.105Z,93.30
2019-02-21T05:13:18.527Z,93.40
2019-02-21T05:15:46.922Z,93.50
2019-02-21T05:18:15.645Z,93.60
2019-02-21T05:20:44.201Z,93.60
2019-02-21T05:23:12.616Z,93.70
2019-02-21T05:25:41.192Z,93.80
2019-02-21T05:28:29.247Z,93.80
2019-02-21T05:31:05.753Z,93.90
2019-02-21T05:33:36.071Z,93.90
2019-02-21T05:36:09.059Z,94.00
2019-02-21T05:38:42.423Z,94.40
2019-02-21T05:41:24.880Z,94.10
2019-02-21T05:43:55.579Z,94.00
2019-02-21T05:46:25.924Z,94.00
2019-02-21T05:48:55.978Z,94.00
2019-02-21T05:51:29.162Z,94.00
2019-02-21T05:54:14.917Z,94.00
2019-02-21T05:56:45.445Z,94.00
2019-02-21T05:59:18.483Z,94.10
2019-02-21T06:01:51.562Z,94.50
2019-02-21T06:04:24.714Z,94.30
2019-02-21T06:07:12.050Z,94.30
2019-02-21T06:09:47.949Z,94.40
2019-02-21T06:12:33.214Z,94.40
2019-02-21T06:14:55.772Z,94.40
2019-02-21T06:17:29.237Z,94.30
2019-02-21T06:20:02.087Z,94.30
2019-02-21T06:22:32.177Z,94.20
2019-02-21T06:25:05.204Z,94.20
2019-02-21T06:27:41.290Z,94.10
2019-02-21T06:30:11.597Z,94.00
2019-02-21T06:32:40.919Z,94.00
2019-02-21T06:35:10.981Z,94.10
2019-02-21T06:37:39.684Z,94.00
2019-02-21T06:40:08.160Z,94.10
2019-02-21T06:42:36.814Z,94.10
2019-02-21T06:45:06.558Z,94.10
2019-02-21T06:47:35.441Z,94.20
2019-02-21T06:50:05.249Z,94.20
2019-02-21T06:52:34.137Z,94.20
2019-02-21T06:55:02.736Z,94.30
2019-02-21T06:57:31.709Z,94.40
2019-02-21T07:00:00.408Z,94.60
2019-02-21T07:02:28.989Z,94.70
2019-02-21T07:04:57.442Z,94.80
2019-02-21T07:07:26.356Z,95.00
2019-02-21T07:09:54.825Z,95.20
2019-02-21T07:12:23.510Z,95.30
2019-02-21T07:14:52.134Z,95.50
2019-02-21T07:17:20.608Z,95.50
2019-02-21T07:19:49.473Z,95.60
2019-02-21T07:22:20.050Z,95.60
2019-02-21T07:24:49.892Z,95.60
2019-02-21T07:27:18.607Z,95.60
2019-02-21T07:29:47.325Z,95.50
2019-02-21T07:32:16.174Z,95.50
2019-02-21T07:34:44.814Z,95.60
2019-02-21T07:37:18.615Z,95.60
2019-02-21T07:39:43.716Z,95.50
2019-02-21T07:42:12.219Z,95.60
2019-02-21T07:44:41.034Z,95.50
2019-02-21T07:47:09.815Z,95.50
2019-02-21T07:49:38.553Z,95.50
2019-02-21T07:52:07.450Z,95.60
2019-02-21T07:54:36.402Z,95.70
2019-02-21T07:57:05.291Z,95.70
2019-02-21T07:59:34.066Z,95.60
2019-02-21T08:02:02.591Z,95.60
2019-02-21T08:04:31.431Z,95.70
2019-02-21T08:06:59.869Z,95.60
2019-02-21T08:09:28.605Z,95.70
2019-02-21T08:11:57.038Z,95.80
2019-02-21T08:14:25.478Z,96.00
2019-02-21T08:16:56.090Z,95.80
2019-02-21T08:19:24.047Z,95.70
2019-02-21T08:21:52.642Z,95.60
2019-02-21T08:24:21.243Z,95.40
2019-02-21T08:26:49.911Z,95.40
2019-02-21T08:29:20.638Z,95.20
2019-02-21T08:31:48.814Z,95.20
2019-02-21T08:34:18.939Z,95.20
2019-02-21T08:36:47.331Z,95.20
2019-02-21T08:39:16.103Z,95.20
2019-02-21T08:41:44.543Z,95.30
2019-02-21T08:44:12.991Z,95.30
2019-02-21T08:46:41.410Z,95.50
2019-02-21T08:49:10.123Z,95.60
2019-02-21T08:51:38.923Z,95.80
2019-02-21T08:54:07.343Z,95.50
2019-02-21T08:56:35.819Z,95.40
2019-02-21T08:59:04.346Z,95.40
2019-02-21T09:01:33.044Z,95.30
2019-02-21T09:04:10.044Z,95.30
2019-02-21T09:06:32.062Z,95.40
2019-02-21T09:09:00.879Z,95.40
2019-02-21T09:11:29.471Z,95.20
2019-02-21T09:13:58.231Z,95.10
2019-02-21T09:16:26.825Z,95.10
2019-02-21T09:18:55.233Z,95.00
2019-02-21T09:21:24.266Z,94.90
2019-02-21T09:23:52.952Z,94.90
2019-02-21T09:26:21.816Z,94.90
2019-02-21T09:28:50.559Z,95.00
2019-02-21T09:31:19.057Z,95.00
2019-02-21T09:33:47.707Z,94.90
2019-02-21T09:36:16.104Z,94.90
2019-02-21T09:38:44.963Z,95.00
2019-02-21T09:41:13.960Z,95.20
2019-02-21T09:43:42.436Z,95.20
2019-02-21T09:46:11.339Z,95.30
2019-02-21T09:48:39.818Z,95.30
2019-02-21T09:51:08.423Z,95.10
2019-02-21T09:53:36.895Z,95.10
2019-02-21T09:56:05.975Z,95.10
2019-02-21T09:58:34.398Z,95.00
2019-02-21T10:01:02.814Z,95.20
2019-02-21T10:03:31.641Z,95.10
2019-02-21T10:06:00.149Z,95.10
2019-02-21T10:08:28.818Z,94.50
2019-02-21T10:10:57.236Z,94.50
2019-02-21T10:13:25.950Z,94.40
2019-02-21T10:15:54.563Z,94.30
2019-02-21T10:18:23.329Z,94.10
2019-02-21T10:20:51.738Z,93.90
2019-02-21T10:23:20.676Z,94.00
2019-02-21T10:25:49.095Z,93.90
2019-02-21T10:28:18.050Z,93.90
2019-02-21T10:30:46.456Z,93.90
2019-02-21T10:33:15.111Z,94.00
2019-02-21T10:35:43.735Z,93.90
2019-02-21T10:38:12.147Z,94.00
2019-02-21T10:40:41.075Z,93.90
2019-02-21T10:43:09.551Z,94.00
2019-02-21T10:45:47.372Z,94.00
2019-02-21T10:48:08.565Z,93.90
2019-02-21T10:50:37.186Z,93.90
2019-02-21T10:53:25.211Z,93.60
2019-02-21T10:55:53.622Z,93.30
2019-02-21T10:58:22.342Z,93.40
2019-02-21T11:00:50.971Z,93.40
2019-02-21T11:03:19.733Z,93.40
2019-02-21T11:05:48.648Z,93.30
2019-02-21T11:08:17.400Z,93.10
2019-02-21T11:10:46.043Z,93.10
2019-02-21T11:13:14.785Z,92.80
2019-02-21T11:15:43.761Z,92.60
2019-02-21T11:18:12.451Z,92.30
2019-02-21T11:20:40.874Z,91.90
2019-02-21T11:23:09.809Z,91.80
2019-02-21T11:25:38.603Z,91.50
2019-02-21T11:28:07.288Z,91.50
2019-02-21T11:30:36.282Z,91.40
2019-02-21T11:33:04.868Z,91.30
2019-02-21T11:35:33.274Z,91.20
2019-02-21T11:38:02.243Z,91.20
2019-02-21T11:40:30.655Z,91.30
2019-02-21T11:42:59.055Z,91.30
2019-02-21T11:45:27.717Z,91.70
2019-02-21T11:47:56.131Z,92.30
2019-02-21T11:50:24.555Z,93.30
2019-02-21T11:52:53.158Z,93.90
2019-02-21T11:55:23.606Z,94.60
2019-02-21T11:57:53.067Z,95.10
2019-02-21T12:00:29.349Z,95.70
2019-02-21T12:02:57.764Z,95.90
2019-02-21T12:05:32.335Z,96.10
2019-02-21T12:07:58.640Z,95.40
2019-02-21T12:10:27.343Z,95.00
2019-02-21T12:12:55.953Z,94.60
2019-02-21T12:15:24.358Z,93.80
2019-02-21T12:17:52.778Z,93.50
2019-02-21T12:20:21.620Z,93.60
2019-02-21T12:22:50.220Z,93.30
2019-02-21T12:25:21.935Z,92.80
2019-02-21T12:27:50.343Z,92.70
2019-02-21T12:30:20.007Z,92.70
2019-02-21T12:32:48.663Z,92.80
2019-02-21T12:35:28.757Z,92.80
2019-02-21T12:37:48.107Z,92.50
2019-02-21T12:40:23.586Z,92.30
2019-02-21T12:42:52.332Z,92.20
2019-02-21T12:45:26.364Z,89.60
2019-02-21T12:47:54.808Z,89.70
2019-02-21T12:50:24.113Z,89.40
2019-02-21T12:52:52.805Z,87.50
2019-02-21T12:55:28.035Z,88.50
2019-02-21T12:57:51.381Z,88.70
2019-02-21T13:00:21.241Z,88.70
2019-02-21T13:02:49.831Z,88.50
2019-02-21T13:05:18.309Z,87.80
2019-02-21T13:07:46.986Z,87.90
2019-02-21T13:10:18.216Z,88.70
2019-02-21T13:12:46.715Z,88.20
2019-02-21T13:15:15.792Z,88.70
2019-02-21T13:17:44.276Z,88.70
2019-02-21T13:20:14.406Z,87.40
2019-02-21T13:22:43.146Z,87.10
2019-02-21T13:25:19.380Z,87.40
2019-02-21T13:27:47.911Z,87.30
2019-02-21T13:30:17.259Z,87.30
2019-02-21T13:32:45.699Z,86.10
2019-02-21T13:35:14.205Z,86.30
2019-02-21T13:37:42.875Z,85.90
2019-02-21T13:40:13.519Z,85.70
2019-02-21T13:42:42.003Z,85.90
2019-02-21T13:45:13.035Z,87.10
2019-02-21T13:47:41.797Z,85.70
2019-02-21T13:50:18.051Z,86.10
2019-02-21T13:52:46.862Z,86.20
2019-02-21T13:55:15.458Z,86.40
2019-02-21T13:57:44.842Z,86.70
2019-02-21T14:00:15.851Z,86.70
2019-02-21T14:02:44.374Z,86.80
2019-02-21T14:05:14.471Z,87.10
2019-02-21T14:07:42.986Z,87.30
2019-02-21T14:10:14.887Z,87.80
2019-02-21T14:12:43.325Z,87.10
2019-02-21T14:15:20.332Z,86.60
2019-02-21T14:17:48.781Z,87.00
2019-02-21T14:20:17.182Z,86.90
2019-02-21T14:22:45.911Z,86.60
2019-02-21T14:25:14.698Z,86.90
2019-02-21T14:27:43.197Z,86.70
2019-02-21T14:30:14.151Z,86.50
2019-02-21T14:32:42.930Z,86.30
2019-02-21T14:35:12.805Z,86.60
2019-02-21T14:37:41.306Z,86.50
2019-02-21T14:40:12.516Z,86.60
2019-02-21T14:42:41.276Z,85.80
2019-02-21T14:45:24.872Z,86.20
2019-02-21T14:47:53.388Z,86.30
2019-02-21T14:50:21.799Z,86.20
2019-02-21T14:52:50.269Z,86.80
2019-02-21T14:55:18.748Z,86.10
2019-02-21T14:57:47.590Z,86.00
2019-02-21T15:00:26.674Z,86.40
2019-02-21T15:02:57.681Z,86.10
2019-02-21T15:05:25.764Z,86.00
2019-02-21T15:07:54.711Z,85.90
2019-02-21T15:10:23.397Z,85.60
2019-02-21T15:12:52.517Z,85.80
2019-02-21T15:15:27.520Z,84.20
2019-02-21T15:18:06.875Z,84.30
2019-02-21T15:20:36.446Z,84.10
2019-02-21T15:22:56.969Z,84.60
2019-02-21T15:25:25.584Z,84.60
2019-02-21T15:27:54.339Z,84.90
2019-02-21T15:30:26.403Z,85.00
2019-02-21T15:32:54.935Z,85.60
2019-02-21T15:35:23.657Z,85.90
2019-02-21T15:37:52.472Z,85.80
2019-02-21T15:40:21.235Z,85.90
2019-02-21T15:42:52.596Z,85.60
2019-02-21T15:45:24.373Z,85.90
2019-02-21T15:47:53.330Z,86.00
2019-02-21T15:50:21.810Z,85.70
2019-02-21T15:52:51.738Z,86.00
2019-02-21T15:55:21.291Z,86.10
2019-02-21T15:57:49.742Z,86.20
2019-02-21T16:00:19.696Z,86.50
2019-02-21T16:02:48.366Z,86.70
2019-02-21T16:05:17.037Z,86.80
2019-02-21T16:07:45.757Z,87.30
2019-02-21T16:10:16.998Z,87.80
2019-02-21T16:12:46.044Z,88.30
2019-02-21T16:15:16.350Z,88.60
2019-02-21T16:17:45.545Z,88.60
2019-02-21T16:20:16.683Z,89.60
2019-02-21T16:22:45.582Z,90.00
2019-02-21T16:25:22.973Z,90.10
2019-02-21T16:27:51.378Z,90.30
2019-02-21T16:30:22.073Z,90.40
2019-02-21T16:32:50.502Z,90.60
2019-02-21T16:35:18.912Z,91.00
2019-02-21T16:37:47.623Z,91.10
2019-02-21T16:40:17.746Z,91.50
2019-02-21T16:42:46.427Z,91.70
2019-02-21T16:45:19.328Z,91.80
2019-02-21T16:47:47.829Z,92.00
2019-02-21T16:50:16.671Z,92.10
2019-02-21T16:52:45.467Z,92.20
2019-02-21T16:55:19.090Z,92.20
2019-02-21T16:57:48.317Z,92.30
2019-02-21T17:00:19.687Z,92.20
2019-02-21T17:02:48.347Z,92.00
2019-02-21T17:05:16.829Z,91.90
2019-02-21T17:07:45.877Z,91.90
2019-02-21T17:10:16.100Z,91.80
2019-02-21T17:12:44.567Z,91.80
2019-02-21T17:15:17.383Z,91.70
2019-02-21T17:17:46.531Z,91.70
2019-02-21T17:20:25.089Z,91.80
2019-02-21T17:22:53.777Z,91.40
2019-02-21T17:25:22.439Z,91.50
2019-02-21T17:27:51.544Z,91.40
2019-02-21T17:30:20.477Z,91.40
2019-02-21T17:32:49.522Z,91.50
2019-02-21T17:35:18.420Z,91.40
2019-02-21T17:37:47.309Z,91.40
2019-02-21T17:40:21.054Z,91.50
2019-02-21T17:42:51.751Z,91.60
2019-02-21T17:45:20.261Z,91.80
2019-02-21T17:47:49.224Z,92.00
2019-02-21T17:50:18.674Z,92.20
2019-02-21T17:52:47.223Z,92.40
2019-02-21T17:55:16.659Z,92.60
2019-02-21T17:57:45.174Z,93.00
2019-02-21T18:00:20.651Z,93.30
2019-02-21T18:02:49.532Z,93.70
2019-02-21T18:05:17.977Z,94.00
2019-02-21T18:07:46.626Z,94.20
2019-02-21T18:10:17.239Z,94.50
2019-02-21T18:12:46.537Z,94.90
2019-02-21T18:15:16.587Z,95.10
2019-02-21T18:17:45.538Z,95.40
2019-02-21T18:20:15.190Z,95.80
2019-02-21T18:22:43.643Z,96.10
2019-02-21T18:25:24.426Z,96.40
2019-02-21T18:27:53.180Z,96.60
2019-02-21T18:30:21.658Z,96.90
2019-02-21T18:32:50.110Z,97.20
2019-02-21T18:35:18.539Z,97.40
2019-02-21T18:37:48.008Z,97.50
2019-02-21T18:40:24.879Z,97.60
2019-02-21T18:42:53.775Z,97.70
2019-02-21T18:45:22.566Z,97.80
2019-02-21T18:47:51.155Z,97.90
2019-02-21T18:50:20.033Z,98.00
2019-02-21T18:52:48.726Z,98.10
2019-02-21T18:55:17.303Z,98.20
2019-02-21T18:57:46.094Z,98.40
2019-02-21T19:00:18.003Z,98.70
2019-02-21T19:02:46.772Z,98.90
2019-02-21T19:05:15.548Z,99.10
2019-02-21T19:07:43.954Z,99.20
2019-02-21T19:10:17.699Z,99.20
2019-02-21T19:12:46.529Z,99.30
2019-02-21T19:15:17.226Z,99.50
2019-02-21T19:17:45.711Z,99.60
2019-02-21T19:20:16.041Z,99.80
2019-02-21T19:22:44.514Z,99.80
2019-02-21T19:25:14.247Z,99.90
2019-02-21T19:27:43.148Z,99.90
2019-02-21T19:30:15.087Z,99.90
2019-02-21T19:32:43.947Z,99.90
2019-02-21T19:35:12.700Z,99.90
2019-02-21T19:37:41.773Z,99.90
2019-02-21T19:40:10.990Z,99.90
2019-02-21T19:42:39.735Z,99.90
2019-02-21T19:45:09.542Z,99.90
2019-02-21T19:47:38.018Z,99.90
2019-02-21T19:50:09.146Z,99.90
2019-02-21T19:52:37.739Z,99.90
2019-02-21T19:55:10.578Z,99.90
2019-02-21T19:57:39.234Z,99.90
2019-02-21T20:00:11.924Z,99.90
2019-02-21T20:02:40.909Z,99.90
2019-02-21T20:05:09.514Z,99.90
2019-02-21T20:07:37.935Z,99.90
2019-02-21T20:10:08.754Z,99.90
2019-02-21T20:12:37.679Z,99.90
2019-02-21T20:15:09.119Z,99.90
2019-02-21T20:17:38.161Z,99.90
2019-02-21T20:20:12.755Z,99.90
2019-02-21T20:22:41.472Z,99.90
2019-02-21T20:25:10.068Z,99.90
2019-02-21T20:27:39.037Z,99.90
2019-02-21T20:30:16.186Z,99.90
2019-02-21T20:32:45.111Z,99.90
2019-02-21T20:35:14.072Z,99.90
2019-02-21T20:37:42.599Z,99.90
2019-02-21T20:40:12.076Z,99.90
2019-02-21T20:42:40.769Z,99.90
2019-02-21T20:45:14.149Z,99.90
2019-02-21T20:47:43.027Z,99.90
2019-02-21T20:50:12.693Z,99.90
2019-02-21T20:52:41.205Z,99.90
2019-02-21T20:55:11.185Z,99.90
2019-02-21T20:57:40.026Z,99.90
2019-02-21T21:00:11.367Z,99.90
2019-02-21T21:02:39.873Z,99.90
2019-02-21T21:05:08.659Z,99.90
2019-02-21T21:10:32.900Z,99.90
2019-02-21T21:13:01.589Z,99.90
2019-02-21T21:15:29.994Z,99.90
2019-02-21T21:17:58.722Z,99.90
2019-02-21T21:20:27.496Z,99.90
2019-02-21T21:22:55.950Z,99.90
2019-02-21T21:25:24.839Z,99.90
2019-02-21T21:27:53.444Z,99.90
2019-02-21T21:30:22.142Z,99.90
2019-02-21T21:32:50.620Z,99.90
2019-02-21T21:35:19.095Z,99.90
2019-02-21T21:37:47.803Z,99.90
2019-02-21T21:40:26.436Z,99.90
2019-02-21T21:43:04.284Z,99.90
2019-02-21T21:45:35.567Z,99.90
2019-02-21T21:48:20.722Z,99.90
2019-02-21T21:50:58.777Z,99.90
2019-02-21T21:53:51.915Z,99.90
2019-02-21T21:56:26.976Z,99.90
2019-02-21T21:59:07.919Z,99.90
2019-02-21T22:01:47.592Z,99.90
2019-02-21T22:04:21.147Z,99.90
2019-02-21T22:06:51.699Z,99.90
2019-02-21T22:09:27.507Z,99.90
2019-02-21T22:12:04.109Z,99.90
2019-02-21T22:14:40.910Z,99.90
2019-02-21T22:17:13.576Z,99.90
2019-02-21T22:19:51.830Z,99.90
2019-02-21T22:22:28.669Z,99.90
2019-02-21T22:25:05.012Z,99.90
2019-02-21T22:27:37.852Z,99.90
2019-02-21T22:30:12.211Z,99.90
2019-02-21T22:32:50.612Z,99.90
2019-02-21T22:35:22.577Z,99.90
2019-02-21T22:37:56.780Z,99.90
2019-02-21T22:40:31.970Z,99.90
2019-02-21T22:43:05.528Z,99.90
2019-02-21T22:45:37.933Z,99.90
2019-02-21T22:48:20.098Z,99.90
2019-02-21T22:50:50.979Z,99.90
2019-02-21T22:53:33.441Z,99.90
2019-02-21T22:56:25.874Z,99.90
2019-02-21T22:58:56.019Z,99.90
2019-02-21T23:01:40.147Z,99.90
2019-02-21T23:04:28.535Z,99.90
2019-02-21T23:07:17.897Z,99.90
2019-02-21T23:09:49.931Z,99.90
2019-02-21T23:12:27.879Z,99.90
2019-02-21T23:17:56.800Z,99.90
2019-02-21T23:20:39.502Z,99.90
2019-02-21T23:23:11.885Z,99.90
2019-02-21T23:25:45.020Z,99.90
2019-02-21T23:28:20.755Z,99.90
2019-02-21T23:31:03.671Z,99.90
2019-02-21T23:33:34.813Z,99.90
2019-02-21T23:36:15.607Z,99.90
2019-02-21T23:38:49.125Z,99.90
2019-02-21T23:41:39.712Z,99.90
2019-02-21T23:44:34.489Z,99.90
2019-02-21T23:47:11.235Z,99.90
2019-02-21T23:49:47.098Z,99.90
2019-02-21T23:52:37.246Z,99.90
2019-02-21T23:55:11.093Z,99.90
2019-02-21T23:57:48.934Z,99.90
